sensor_id;sensor_type;location;lat;lon;timestamp;pressure;altitude;pressure_sealevel;temperature;humidity
27425;BME280;15244;49.088;11.886;2022-11-20T00:03:14;95210.63;;;5.34;52.21
27425;BME280;15244;49.088;11.886;2022-11-20T00:08:17;95204.44;;;5.34;52.99
27425;BME280;15244;49.088;11.886;2022-11-20T00:13:19;95203.31;;;5.35;52.71
27425;BME280;15244;49.088;11.886;2022-11-20T00:18:23;95207.13;;;5.34;52.01
27425;BME280;15244;49.088;11.886;2022-11-20T00:23:24;95205.94;;;5.31;52.14
27425;BME280;15244;49.088;11.886;2022-11-20T00:28:26;95203.22;;;5.31;52.48
27425;BME280;15244;49.088;11.886;2022-11-20T00:33:32;95206.31;;;5.30;52.22
27425;BME280;15244;49.088;11.886;2022-11-20T00:38:36;95213.22;;;5.27;51.78
27425;BME280;15244;49.088;11.886;2022-11-20T00:43:40;95212.06;;;5.28;52.70
27425;BME280;15244;49.088;11.886;2022-11-20T00:48:44;95206.66;;;5.28;52.25
27425;BME280;15244;49.088;11.886;2022-11-20T00:53:46;95212.06;;;5.28;51.94
27425;BME280;15244;49.088;11.886;2022-11-20T00:58:49;95207.81;;;5.27;52.64
27425;BME280;15244;49.088;11.886;2022-11-20T01:03:53;95209.75;;;5.27;52.58
27425;BME280;15244;49.088;11.886;2022-11-20T01:09:01;95216.66;;;5.24;52.14
27425;BME280;15244;49.088;11.886;2022-11-20T01:14:09;95224.38;;;5.26;52.18
27425;BME280;15244;49.088;11.886;2022-11-20T01:19:15;95215.50;;;5.25;52.28
27425;BME280;15244;49.088;11.886;2022-11-20T01:24:20;95216.28;;;5.26;52.20
27425;BME280;15244;49.088;11.886;2022-11-20T01:29:23;95226.66;;;5.24;52.45
27425;BME280;15244;49.088;11.886;2022-11-20T01:34:26;95217.34;;;5.21;52.76
27425;BME280;15244;49.088;11.886;2022-11-20T01:39:29;95213.44;;;5.18;52.45
27425;BME280;15244;49.088;11.886;2022-11-20T01:44:54;95220.78;;;5.18;52.70
27425;BME280;15244;49.088;11.886;2022-11-20T01:50:24;95214.94;;;5.16;52.04
27425;BME280;15244;49.088;11.886;2022-11-20T01:55:31;95206.84;;;5.16;52.92
27425;BME280;15244;49.088;11.886;2022-11-20T02:00:35;95205.34;;;5.18;52.96
27425;BME280;15244;49.088;11.886;2022-11-20T02:10:48;95204.59;;;5.21;52.78
27425;BME280;15244;49.088;11.886;2022-11-20T02:15:51;95208.13;;;5.22;52.34
27425;BME280;15244;49.088;11.886;2022-11-20T02:21:02;95214.72;;;5.25;53.05
27425;BME280;15244;49.088;11.886;2022-11-20T02:26:12;95207.38;;;5.25;52.66
27425;BME280;15244;49.088;11.886;2022-11-20T02:31:17;95212.00;;;5.25;53.05
27425;BME280;15244;49.088;11.886;2022-11-20T02:36:19;95211.63;;;5.26;53.28
27425;BME280;15244;49.088;11.886;2022-11-20T02:41:21;95202.41;;;5.27;53.02
27425;BME280;15244;49.088;11.886;2022-11-20T02:46:24;95199.69;;;5.27;52.84
27425;BME280;15244;49.088;11.886;2022-11-20T02:51:27;95198.50;;;5.25;52.91
27425;BME280;15244;49.088;11.886;2022-11-20T02:56:29;95189.63;;;5.24;52.92
27425;BME280;15244;49.088;11.886;2022-11-20T03:01:31;95193.09;;;5.25;52.63
27425;BME280;15244;49.088;11.886;2022-11-20T03:06:34;95195.41;;;5.26;53.00
27425;BME280;15244;49.088;11.886;2022-11-20T03:11:37;95187.31;;;5.26;52.85
27425;BME280;15244;49.088;11.886;2022-11-20T03:16:39;95188.13;;;5.27;52.99
27425;BME280;15244;49.088;11.886;2022-11-20T03:21:40;95185.41;;;5.27;52.82
27425;BME280;15244;49.088;11.886;2022-11-20T03:26:42;95188.50;;;5.29;53.29
27425;BME280;15244;49.088;11.886;2022-11-20T03:31:46;95181.56;;;5.28;53.20
27425;BME280;15244;49.088;11.886;2022-11-20T03:36:50;95192.03;;;5.29;53.51
27425;BME280;15244;49.088;11.886;2022-11-20T03:41:52;95191.63;;;5.31;53.45
27425;BME280;15244;49.088;11.886;2022-11-20T03:46:54;95192.41;;;5.31;53.16
27425;BME280;15244;49.088;11.886;2022-11-20T03:51:57;95192.41;;;5.31;53.32
27425;BME280;15244;49.088;11.886;2022-11-20T03:56:59;95195.53;;;5.33;53.29
27425;BME280;15244;49.088;11.886;2022-11-20T04:02:01;95187.84;;;5.35;53.93
27425;BME280;15244;49.088;11.886;2022-11-20T04:07:06;95194.81;;;5.36;53.44
27425;BME280;15244;49.088;11.886;2022-11-20T04:12:08;95183.66;;;5.38;53.31
27425;BME280;15244;49.088;11.886;2022-11-20T04:17:10;95183.28;;;5.39;53.74
27425;BME280;15244;49.088;11.886;2022-11-20T04:22:12;95177.50;;;5.41;53.50
27425;BME280;15244;49.088;11.886;2022-11-20T04:27:18;95175.97;;;5.40;53.63
27425;BME280;15244;49.088;11.886;2022-11-20T04:32:21;95181.78;;;5.42;53.58
27425;BME280;15244;49.088;11.886;2022-11-20T04:37:22;95175.56;;;5.41;53.59
27425;BME280;15244;49.088;11.886;2022-11-20T04:42:26;95170.16;;;5.41;54.23
27425;BME280;15244;49.088;11.886;2022-11-20T04:47:34;95174.44;;;5.42;54.35
27425;BME280;15244;49.088;11.886;2022-11-20T04:52:38;95172.94;;;5.45;54.65
27425;BME280;15244;49.088;11.886;2022-11-20T04:57:42;95162.56;;;5.47;54.32
27425;BME280;15244;49.088;11.886;2022-11-20T05:02:44;95162.94;;;5.49;54.07
27425;BME280;15244;49.088;11.886;2022-11-20T05:07:46;95159.13;;;5.50;53.96
27425;BME280;15244;49.088;11.886;2022-11-20T05:12:48;95156.03;;;5.52;54.05
27425;BME280;15244;49.088;11.886;2022-11-20T05:17:51;95156.44;;;5.54;54.46
27425;BME280;15244;49.088;11.886;2022-11-20T05:22:56;95156.53;;;5.57;54.32
27425;BME280;15244;49.088;11.886;2022-11-20T05:27:59;95163.47;;;5.58;54.45
27425;BME280;15244;49.088;11.886;2022-11-20T05:33:01;95172.34;;;5.59;54.41
27425;BME280;15244;49.088;11.886;2022-11-20T05:38:03;95167.72;;;5.59;54.79
27425;BME280;15244;49.088;11.886;2022-11-20T05:43:05;95175.06;;;5.59;54.67
27425;BME280;15244;49.088;11.886;2022-11-20T05:48:08;95168.16;;;5.61;55.03
27425;BME280;15244;49.088;11.886;2022-11-20T05:53:10;95165.09;;;5.63;54.41
27425;BME280;15244;49.088;11.886;2022-11-20T05:58:12;95171.28;;;5.63;54.96
27425;BME280;15244;49.088;11.886;2022-11-20T06:03:14;95164.72;;;5.64;54.91
27425;BME280;15244;49.088;11.886;2022-11-20T06:08:17;95160.88;;;5.65;55.08
27425;BME280;15244;49.088;11.886;2022-11-20T06:13:19;95152.00;;;5.65;55.18
27425;BME280;15244;49.088;11.886;2022-11-20T06:18:21;95159.72;;;5.67;54.48
27425;BME280;15244;49.088;11.886;2022-11-20T06:23:23;95160.19;;;5.72;54.98
27425;BME280;15244;49.088;11.886;2022-11-20T06:28:25;95158.31;;;5.76;55.07
27425;BME280;15244;49.088;11.886;2022-11-20T06:33:29;95160.28;;;5.79;55.08
27425;BME280;15244;49.088;11.886;2022-11-20T06:38:31;95161.84;;;5.80;54.52
27425;BME280;15244;49.088;11.886;2022-11-20T06:43:33;95163.41;;;5.81;54.49
27425;BME280;15244;49.088;11.886;2022-11-20T06:48:35;95166.88;;;5.82;55.07
27425;BME280;15244;49.088;11.886;2022-11-20T06:53:37;95163.03;;;5.83;54.87
27425;BME280;15244;49.088;11.886;2022-11-20T06:58:39;95169.66;;;5.85;55.39
27425;BME280;15244;49.088;11.886;2022-11-20T07:03:42;95165.78;;;5.86;55.30
27425;BME280;15244;49.088;11.886;2022-11-20T07:08:44;95174.31;;;5.89;55.51
27425;BME280;15244;49.088;11.886;2022-11-20T07:13:45;95177.44;;;5.91;55.55
27425;BME280;15244;49.088;11.886;2022-11-20T07:18:48;95177.81;;;5.89;55.58
27425;BME280;15244;49.088;11.886;2022-11-20T07:23:51;95180.88;;;5.88;55.29
27425;BME280;15244;49.088;11.886;2022-11-20T07:28:54;95183.53;;;5.84;55.19
27425;BME280;15244;49.088;11.886;2022-11-20T07:33:56;95187.75;;;5.81;56.00
27425;BME280;15244;49.088;11.886;2022-11-20T07:38:57;95189.25;;;5.79;55.67
27425;BME280;15244;49.088;11.886;2022-11-20T07:43:59;95181.53;;;5.77;56.43
27425;BME280;15244;49.088;11.886;2022-11-20T07:49:01;95182.31;;;5.78;55.69
27425;BME280;15244;49.088;11.886;2022-11-20T07:54:03;95186.63;;;5.82;56.52
27425;BME280;15244;49.088;11.886;2022-11-20T07:59:04;95190.13;;;5.86;56.22
27425;BME280;15244;49.088;11.886;2022-11-20T08:04:08;95184.84;;;5.94;56.69
27425;BME280;15244;49.088;11.886;2022-11-20T08:09:10;95183.38;;;6.00;56.79
27425;BME280;15244;49.088;11.886;2022-11-20T08:14:12;95187.69;;;6.04;56.56
27425;BME280;15244;49.088;11.886;2022-11-20T08:19:16;95192.00;;;6.09;56.85
27425;BME280;15244;49.088;11.886;2022-11-20T08:24:18;95192.88;;;6.17;56.51
27425;BME280;15244;49.088;11.886;2022-11-20T08:29:20;95196.41;;;6.21;56.73
27425;BME280;15244;49.088;11.886;2022-11-20T08:34:22;95199.53;;;6.23;56.80
27425;BME280;15244;49.088;11.886;2022-11-20T08:39:24;95201.50;;;6.26;56.11
27425;BME280;15244;49.088;11.886;2022-11-20T08:44:27;95204.22;;;6.26;56.09
27425;BME280;15244;49.088;11.886;2022-11-20T08:49:28;95203.84;;;6.27;56.60
27425;BME280;15244;49.088;11.886;2022-11-20T08:54:30;95207.69;;;6.26;56.16
27425;BME280;15244;49.088;11.886;2022-11-20T08:59:32;95198.06;;;6.29;56.20
27425;BME280;15244;49.088;11.886;2022-11-20T09:04:53;95211.63;;;6.33;56.24
27425;BME280;15244;49.088;11.886;2022-11-20T09:09:55;95203.94;;;6.35;56.87
27425;BME280;15244;49.088;11.886;2022-11-20T09:15:17;95198.16;;;6.36;56.92
27425;BME280;15244;49.088;11.886;2022-11-20T09:20:19;95195.13;;;6.41;56.59
27425;BME280;15244;49.088;11.886;2022-11-20T09:25:21;95211.03;;;6.46;57.02
27425;BME280;15244;49.088;11.886;2022-11-20T09:30:24;95206.44;;;6.50;56.98
27425;BME280;15244;49.088;11.886;2022-11-20T09:35:26;95198.03;;;6.59;57.21
27425;BME280;15244;49.088;11.886;2022-11-20T09:40:28;95199.63;;;6.64;56.82
27425;BME280;15244;49.088;11.886;2022-11-20T09:51:05;95188.06;;;6.70;56.85
27425;BME280;15244;49.088;11.886;2022-11-20T09:56:14;95192.38;;;6.75;56.90
27425;BME280;15244;49.088;11.886;2022-11-20T10:01:28;95197.06;;;6.78;57.37
27425;BME280;15244;49.088;11.886;2022-11-20T10:06:57;95185.09;;;6.79;57.15
27425;BME280;15244;49.088;11.886;2022-11-20T10:39:33;95155.84;;;6.99;57.92
27425;BME280;15244;49.088;11.886;2022-11-20T10:44:39;95164.78;;;7.03;57.45
27425;BME280;15244;49.088;11.886;2022-11-20T10:50:11;95159.00;;;7.05;57.84
27425;BME280;15244;49.088;11.886;2022-11-20T10:55:33;95165.59;;;7.07;57.95
27425;BME280;15244;49.088;11.886;2022-11-20T11:00:40;95166.78;;;7.10;57.53
27425;BME280;15244;49.088;11.886;2022-11-20T11:11:29;95165.19;;;7.09;57.77
27425;BME280;15244;49.088;11.886;2022-11-20T11:16:31;95156.28;;;7.08;57.57
27425;BME280;15244;49.088;11.886;2022-11-20T11:21:34;95150.88;;;7.08;57.59
27425;BME280;15244;49.088;11.886;2022-11-20T11:26:36;95143.16;;;7.10;58.04
27425;BME280;15244;49.088;11.886;2022-11-20T11:31:38;95150.91;;;7.12;58.17
27425;BME280;15244;49.088;11.886;2022-11-20T11:36:41;95142.00;;;7.11;58.17
27425;BME280;15244;49.088;11.886;2022-11-20T11:41:43;95142.38;;;7.10;57.96
27425;BME280;15244;49.088;11.886;2022-11-20T11:46:55;95137.72;;;7.10;57.85
27425;BME280;15244;49.088;11.886;2022-11-20T11:57:41;95125.78;;;7.15;57.92
27425;BME280;15244;49.088;11.886;2022-11-20T12:13:34;95121.13;;;7.15;58.33
27425;BME280;15244;49.088;11.886;2022-11-20T12:18:39;95112.63;;;7.17;58.32
27425;BME280;15244;49.088;11.886;2022-11-20T12:34:43;95120.41;;;7.26;58.42
27425;BME280;15244;49.088;11.886;2022-11-20T12:39:49;95118.53;;;7.30;58.46
27425;BME280;15244;49.088;11.886;2022-11-20T12:45:41;95115.03;;;7.29;58.82
27425;BME280;15244;49.088;11.886;2022-11-20T13:07:28;95105.81;;;7.41;58.67
27425;BME280;15244;49.088;11.886;2022-11-20T13:12:36;95091.47;;;7.41;58.77
27425;BME280;15244;49.088;11.886;2022-11-20T13:17:51;95091.88;;;7.43;58.91
27425;BME280;15244;49.088;11.886;2022-11-20T13:22:56;95092.66;;;7.47;58.97
27425;BME280;15244;49.088;11.886;2022-11-20T13:38:47;95110.56;;;7.58;58.63
27425;BME280;15244;49.088;11.886;2022-11-20T13:43:49;95107.09;;;7.62;58.96
27425;BME280;15244;49.088;11.886;2022-11-20T13:48:52;95109.78;;;7.62;58.79
27425;BME280;15244;49.088;11.886;2022-11-20T13:54:17;95102.03;;;7.56;58.55
27425;BME280;15244;49.088;11.886;2022-11-20T14:05:22;95098.06;;;7.40;58.27
27425;BME280;15244;49.088;11.886;2022-11-20T14:10:29;95089.94;;;7.40;57.83
27425;BME280;15244;49.088;11.886;2022-11-20T14:15:34;95090.69;;;7.40;58.04
27425;BME280;15244;49.088;11.886;2022-11-20T14:20:40;95100.38;;;7.41;58.20
27425;BME280;15244;49.088;11.886;2022-11-20T14:25:44;95108.91;;;7.43;57.99
27425;BME280;15244;49.088;11.886;2022-11-20T14:30:47;95101.19;;;7.49;57.81
27425;BME280;15244;49.088;11.886;2022-11-20T14:35:52;95098.91;;;7.51;57.69
27425;BME280;15244;49.088;11.886;2022-11-20T14:41:06;95097.38;;;7.57;58.01
27425;BME280;15244;49.088;11.886;2022-11-20T14:46:09;95086.91;;;7.59;58.13
27425;BME280;15244;49.088;11.886;2022-11-20T14:56:27;95072.63;;;7.66;57.95
27425;BME280;15244;49.088;11.886;2022-11-20T15:01:30;95078.06;;;7.69;58.25
27425;BME280;15244;49.088;11.886;2022-11-20T15:06:32;95071.50;;;7.74;58.17
27425;BME280;15244;49.088;11.886;2022-11-20T15:11:35;95069.19;;;7.76;58.16
27425;BME280;15244;49.088;11.886;2022-11-20T15:16:37;95077.72;;;7.78;58.12
27425;BME280;15244;49.088;11.886;2022-11-20T15:21:40;95084.31;;;7.80;57.84
27425;BME280;15244;49.088;11.886;2022-11-20T15:26:42;95117.53;;;7.59;58.39
27425;BME280;15244;49.088;11.886;2022-11-20T15:31:44;95101.97;;;7.46;58.18
27425;BME280;15244;49.088;11.886;2022-11-20T15:36:46;95109.22;;;7.31;57.92
27425;BME280;15244;49.088;11.886;2022-11-20T15:41:48;95116.13;;;7.21;57.51
27425;BME280;15244;49.088;11.886;2022-11-20T15:46:49;95108.31;;;7.12;57.21
27425;BME280;15244;49.088;11.886;2022-11-20T15:51:51;95104.84;;;7.12;57.71
27425;BME280;15244;49.088;11.886;2022-11-20T15:56:54;95107.16;;;7.10;56.98
27425;BME280;15244;49.088;11.886;2022-11-20T16:01:56;95103.25;;;7.07;57.33
27425;BME280;15244;49.088;11.886;2022-11-20T16:06:58;95114.84;;;7.04;57.13
27425;BME280;15244;49.088;11.886;2022-11-20T16:12:00;95112.50;;;7.03;57.37
27425;BME280;15244;49.088;11.886;2022-11-20T16:17:02;95102.06;;;7.05;57.00
27425;BME280;15244;49.088;11.886;2022-11-20T16:22:04;95110.97;;;7.05;57.62
27425;BME280;15244;49.088;11.886;2022-11-20T16:27:06;95110.22;;;7.08;57.03
27425;BME280;15244;49.088;11.886;2022-11-20T16:32:07;95102.84;;;7.09;56.97
27425;BME280;15244;49.088;11.886;2022-11-20T16:37:11;95102.09;;;7.08;57.33
27425;BME280;15244;49.088;11.886;2022-11-20T16:42:13;95089.72;;;7.11;57.33
27425;BME280;15244;49.088;11.886;2022-11-20T16:47:14;95102.13;;;7.12;57.59
27425;BME280;15244;49.088;11.886;2022-11-20T16:52:16;95096.72;;;7.12;57.24
27425;BME280;15244;49.088;11.886;2022-11-20T16:57:18;95106.38;;;7.09;56.90
27425;BME280;15244;49.088;11.886;2022-11-20T17:02:20;95093.59;;;7.10;57.71
27425;BME280;15244;49.088;11.886;2022-11-20T17:07:22;95096.72;;;7.12;57.09
27425;BME280;15244;49.088;11.886;2022-11-20T17:12:24;95094.00;;;7.15;57.47
27425;BME280;15244;49.088;11.886;2022-11-20T17:17:26;95085.13;;;7.19;57.36
27425;BME280;15244;49.088;11.886;2022-11-20T17:22:28;95083.59;;;7.21;57.36
27425;BME280;15244;49.088;11.886;2022-11-20T17:27:30;95081.28;;;7.23;57.62
27425;BME280;15244;49.088;11.886;2022-11-20T17:32:32;95069.31;;;7.24;57.34
27425;BME280;15244;49.088;11.886;2022-11-20T17:37:33;95065.41;;;7.25;56.92
27425;BME280;15244;49.088;11.886;2022-11-20T17:42:35;95074.31;;;7.26;57.22
27425;BME280;15244;49.088;11.886;2022-11-20T17:47:37;95082.47;;;7.26;57.25
27425;BME280;15244;49.088;11.886;2022-11-20T17:52:39;95077.03;;;7.26;56.67
27425;BME280;15244;49.088;11.886;2022-11-20T17:57:40;95073.56;;;7.25;56.69
27425;BME280;15244;49.088;11.886;2022-11-20T18:02:57;95067.72;;;7.23;56.85
27425;BME280;15244;49.088;11.886;2022-11-20T18:07:59;95061.13;;;7.21;56.63
27425;BME280;15244;49.088;11.886;2022-11-20T18:13:01;95060.72;;;7.19;56.87
27425;BME280;15244;49.088;11.886;2022-11-20T18:18:03;95057.63;;;7.16;56.95
27425;BME280;15244;49.088;11.886;2022-11-20T18:23:05;95043.66;;;7.14;56.61
27425;BME280;15244;49.088;11.886;2022-11-20T18:28:06;95045.56;;;7.10;56.02
27425;BME280;15244;49.088;11.886;2022-11-20T18:33:09;95042.84;;;7.07;56.33
27425;BME280;15244;49.088;11.886;2022-11-20T18:38:11;95040.50;;;7.05;56.93
27425;BME280;15244;49.088;11.886;2022-11-20T18:43:13;95028.88;;;7.05;56.88
27425;BME280;15244;49.088;11.886;2022-11-20T18:48:33;95018.41;;;7.03;57.03
27425;BME280;15244;49.088;11.886;2022-11-20T18:53:36;95003.72;;;7.04;56.94
27425;BME280;15244;49.088;11.886;2022-11-20T18:58:38;94997.50;;;7.04;56.87
27425;BME280;15244;49.088;11.886;2022-11-20T19:03:41;95001.38;;;7.03;57.12
27425;BME280;15244;49.088;11.886;2022-11-20T19:08:45;95004.09;;;7.03;56.96
27425;BME280;15244;49.088;11.886;2022-11-20T19:13:47;95010.69;;;7.02;57.14
27425;BME280;15244;49.088;11.886;2022-11-20T19:18:50;95009.50;;;7.03;56.88
27425;BME280;15244;49.088;11.886;2022-11-20T19:23:56;95009.50;;;7.03;56.63
27425;BME280;15244;49.088;11.886;2022-11-20T19:29:04;94999.44;;;7.03;56.99
27425;BME280;15244;49.088;11.886;2022-11-20T19:34:08;94997.13;;;7.02;56.93
27425;BME280;15244;49.088;11.886;2022-11-20T19:39:11;94989.78;;;7.06;56.85
27425;BME280;15244;49.088;11.886;2022-11-20T19:44:14;94986.69;;;7.07;56.77
27425;BME280;15244;49.088;11.886;2022-11-20T19:49:21;94981.69;;;7.09;56.68
27425;BME280;15244;49.088;11.886;2022-11-20T19:54:25;94981.69;;;7.09;57.23
27425;BME280;15244;49.088;11.886;2022-11-20T19:59:30;94977.44;;;7.12;56.92
27425;BME280;15244;49.088;11.886;2022-11-20T20:04:32;94975.09;;;7.10;56.88
27425;BME280;15244;49.088;11.886;2022-11-20T20:09:38;94957.28;;;7.13;56.71
27425;BME280;15244;49.088;11.886;2022-11-20T20:14:42;94951.50;;;7.14;56.97
27425;BME280;15244;49.088;11.886;2022-11-20T20:19:44;94950.72;;;7.14;56.97
27425;BME280;15244;49.088;11.886;2022-11-20T20:24:49;94948.78;;;7.14;57.32
27425;BME280;15244;49.088;11.886;2022-11-20T20:29:52;94939.50;;;7.15;57.07
27425;BME280;15244;49.088;11.886;2022-11-20T20:34:56;94934.84;;;7.16;56.96
27425;BME280;15244;49.088;11.886;2022-11-20T20:39:59;94926.72;;;7.16;56.93
27425;BME280;15244;49.088;11.886;2022-11-20T20:45:03;94923.22;;;7.15;57.35
27425;BME280;15244;49.088;11.886;2022-11-20T20:50:10;94922.06;;;7.13;56.75
27425;BME280;15244;49.088;11.886;2022-11-20T20:55:13;94924.00;;;7.12;56.88
27425;BME280;15244;49.088;11.886;2022-11-20T21:00:15;94924.75;;;7.09;56.90
27425;BME280;15244;49.088;11.886;2022-11-20T21:05:18;94913.88;;;7.06;57.17
27425;BME280;15244;49.088;11.886;2022-11-20T21:10:21;94900.69;;;7.01;57.50
27425;BME280;15244;49.088;11.886;2022-11-20T21:15:24;94909.22;;;6.99;57.03
27425;BME280;15244;49.088;11.886;2022-11-20T21:20:29;94901.47;;;6.94;57.06
27425;BME280;15244;49.088;11.886;2022-11-20T21:25:52;94903.72;;;6.88;57.25
27425;BME280;15244;49.088;11.886;2022-11-20T21:31:10;94896.78;;;6.87;57.65
27425;BME280;15244;49.088;11.886;2022-11-20T21:36:27;94899.47;;;6.84;57.44
27425;BME280;15244;49.088;11.886;2022-11-20T21:41:31;94891.34;;;6.84;57.34
27425;BME280;15244;49.088;11.886;2022-11-20T21:46:39;94885.88;;;6.77;57.18
27425;BME280;15244;49.088;11.886;2022-11-20T21:51:41;94887.03;;;6.72;57.97
27425;BME280;15244;49.088;11.886;2022-11-20T21:56:42;94902.88;;;6.70;57.88
27425;BME280;15244;49.088;11.886;2022-11-20T22:01:46;94890.50;;;6.69;57.78
27425;BME280;15244;49.088;11.886;2022-11-20T22:06:50;94899.75;;;6.64;58.02
27425;BME280;15244;49.088;11.886;2022-11-20T22:11:56;94902.44;;;6.64;58.44
27425;BME280;15244;49.088;11.886;2022-11-20T22:16:58;94890.84;;;6.64;58.50
27425;BME280;15244;49.088;11.886;2022-11-20T22:22:03;94875.72;;;6.63;58.43
27425;BME280;15244;49.088;11.886;2022-11-20T22:27:04;94863.34;;;6.62;58.62
27425;BME280;15244;49.088;11.886;2022-11-20T22:32:07;94862.59;;;6.61;58.83
27425;BME280;15244;49.088;11.886;2022-11-20T22:37:10;94873.38;;;6.58;58.36
27425;BME280;15244;49.088;11.886;2022-11-20T22:42:13;94856.38;;;6.57;58.12
27425;BME280;15244;49.088;11.886;2022-11-20T22:47:15;94857.91;;;6.58;58.37
27425;BME280;15244;49.088;11.886;2022-11-20T22:52:19;94867.19;;;6.57;58.36
27425;BME280;15244;49.088;11.886;2022-11-20T22:57:25;94847.84;;;6.55;58.60
27425;BME280;15244;49.088;11.886;2022-11-20T23:02:27;94851.72;;;6.54;58.21
27425;BME280;15244;49.088;11.886;2022-11-20T23:07:37;94842.81;;;6.54;57.85
27425;BME280;15244;49.088;11.886;2022-11-20T23:12:43;94834.69;;;6.57;58.18
27425;BME280;15244;49.088;11.886;2022-11-20T23:17:45;94836.25;;;6.58;58.00
27425;BME280;15244;49.088;11.886;2022-11-20T23:22:48;94840.47;;;6.56;58.60
27425;BME280;15244;49.088;11.886;2022-11-20T23:27:51;94828.88;;;6.55;58.33
27425;BME280;15244;49.088;11.886;2022-11-20T23:32:54;94828.09;;;6.55;58.33
27425;BME280;15244;49.088;11.886;2022-11-20T23:37:56;94817.28;;;6.51;58.34
27425;BME280;15244;49.088;11.886;2022-11-20T23:43:00;94815.69;;;6.50;58.47
27425;BME280;15244;49.088;11.886;2022-11-20T23:48:18;94812.22;;;6.49;59.07
27425;BME280;15244;49.088;11.886;2022-11-20T23:53:23;94821.53;;;6.52;58.79
27425;BME280;15244;49.088;11.886;2022-11-20T23:58:33;94813.38;;;6.48;58.64
